sensor_id;sensor_type;location;lat;lon;timestamp;P1;durP1;ratioP1;P2;durP2;ratioP2
21754;SDS011;11039;50.028;19.938;2023-02-28T00:00:17;6.35;;;3.85;;
21754;SDS011;11039;50.028;19.938;2023-02-28T00:02:44;6.55;;;3.70;;
21754;SDS011;11039;50.028;19.938;2023-02-28T00:05:11;5.70;;;3.47;;
21754;SDS011;11039;50.028;19.938;2023-02-28T00:07:37;6.50;;;4.35;;
21754;SDS011;11039;50.028;19.938;2023-02-28T00:10:07;6.20;;;4.07;;
21754;SDS011;11039;50.028;19.938;2023-02-28T00:12:34;6.40;;;3.78;;
21754;SDS011;11039;50.028;19.938;2023-02-28T00:15:01;5.95;;;4.00;;
21754;SDS011;11039;50.028;19.938;2023-02-28T00:17:27;5.03;;;3.53;;
21754;SDS011;11039;50.028;19.938;2023-02-28T00:20:12;5.97;;;4.00;;
21754;SDS011;11039;50.028;19.938;2023-02-28T00:22:39;5.95;;;4.00;;
21754;SDS011;11039;50.028;19.938;2023-02-28T00:25:06;5.35;;;3.67;;
21754;SDS011;11039;50.028;19.938;2023-02-28T00:27:32;6.65;;;4.13;;
21754;SDS011;11039;50.028;19.938;2023-02-28T00:29:58;5.72;;;4.10;;
21754;SDS011;11039;50.028;19.938;2023-02-28T00:32:24;5.97;;;4.28;;
21754;SDS011;11039;50.028;19.938;2023-02-28T00:34:51;7.28;;;4.20;;
21754;SDS011;11039;50.028;19.938;2023-02-28T00:37:17;6.55;;;4.18;;
21754;SDS011;11039;50.028;19.938;2023-02-28T00:39:43;6.85;;;4.32;;
21754;SDS011;11039;50.028;19.938;2023-02-28T00:42:09;5.97;;;4.20;;
21754;SDS011;11039;50.028;19.938;2023-02-28T00:44:35;6.13;;;4.15;;
21754;SDS011;11039;50.028;19.938;2023-02-28T00:47:01;7.07;;;4.38;;
21754;SDS011;11039;50.028;19.938;2023-02-28T00:49:27;5.97;;;4.18;;
21754;SDS011;11039;50.028;19.938;2023-02-28T00:51:54;5.65;;;4.25;;
21754;SDS011;11039;50.028;19.938;2023-02-28T00:54:20;6.57;;;4.40;;
21754;SDS011;11039;50.028;19.938;2023-02-28T00:56:47;5.78;;;4.03;;
21754;SDS011;11039;50.028;19.938;2023-02-28T00:59:13;6.45;;;4.25;;
21754;SDS011;11039;50.028;19.938;2023-02-28T01:01:39;6.22;;;4.40;;
21754;SDS011;11039;50.028;19.938;2023-02-28T01:04:06;6.63;;;4.68;;
21754;SDS011;11039;50.028;19.938;2023-02-28T01:06:32;5.57;;;4.05;;
21754;SDS011;11039;50.028;19.938;2023-02-28T01:08:58;5.70;;;4.03;;
21754;SDS011;11039;50.028;19.938;2023-02-28T01:11:24;5.97;;;4.40;;
21754;SDS011;11039;50.028;19.938;2023-02-28T01:13:51;7.55;;;4.30;;
21754;SDS011;11039;50.028;19.938;2023-02-28T01:16:17;6.18;;;4.57;;
21754;SDS011;11039;50.028;19.938;2023-02-28T01:18:43;7.88;;;4.72;;
21754;SDS011;11039;50.028;19.938;2023-02-28T01:21:11;7.80;;;4.68;;
21754;SDS011;11039;50.028;19.938;2023-02-28T01:23:38;7.43;;;4.88;;
21754;SDS011;11039;50.028;19.938;2023-02-28T01:26:05;6.68;;;4.55;;
21754;SDS011;11039;50.028;19.938;2023-02-28T01:28:31;7.20;;;4.60;;
21754;SDS011;11039;50.028;19.938;2023-02-28T01:30:57;6.95;;;4.75;;
21754;SDS011;11039;50.028;19.938;2023-02-28T01:33:24;6.25;;;4.50;;
21754;SDS011;11039;50.028;19.938;2023-02-28T01:35:57;6.22;;;4.68;;
21754;SDS011;11039;50.028;19.938;2023-02-28T01:38:23;7.28;;;5.00;;
21754;SDS011;11039;50.028;19.938;2023-02-28T01:40:49;6.30;;;4.35;;
21754;SDS011;11039;50.028;19.938;2023-02-28T01:43:28;6.80;;;5.03;;
21754;SDS011;11039;50.028;19.938;2023-02-28T01:45:55;6.55;;;4.47;;
21754;SDS011;11039;50.028;19.938;2023-02-28T01:48:25;7.40;;;4.60;;
21754;SDS011;11039;50.028;19.938;2023-02-28T01:50:52;6.47;;;4.55;;
21754;SDS011;11039;50.028;19.938;2023-02-28T01:53:19;6.05;;;4.28;;
21754;SDS011;11039;50.028;19.938;2023-02-28T01:55:48;6.93;;;4.60;;
21754;SDS011;11039;50.028;19.938;2023-02-28T01:58:14;7.38;;;4.88;;
21754;SDS011;11039;50.028;19.938;2023-02-28T02:00:41;8.10;;;5.10;;
21754;SDS011;11039;50.028;19.938;2023-02-28T02:03:12;7.38;;;4.80;;
21754;SDS011;11039;50.028;19.938;2023-02-28T02:05:39;6.38;;;4.40;;
21754;SDS011;11039;50.028;19.938;2023-02-28T02:08:06;6.07;;;4.88;;
21754;SDS011;11039;50.028;19.938;2023-02-28T02:10:44;7.05;;;4.90;;
21754;SDS011;11039;50.028;19.938;2023-02-28T02:18:30;6.70;;;4.32;;
21754;SDS011;11039;50.028;19.938;2023-02-28T02:26:27;7.85;;;5.32;;
21754;SDS011;11039;50.028;19.938;2023-02-28T02:29:03;6.45;;;4.97;;
21754;SDS011;11039;50.028;19.938;2023-02-28T02:36:48;8.45;;;5.10;;
21754;SDS011;11039;50.028;19.938;2023-02-28T02:41:55;6.47;;;4.68;;
21754;SDS011;11039;50.028;19.938;2023-02-28T02:44:31;7.03;;;5.35;;
21754;SDS011;11039;50.028;19.938;2023-02-28T02:47:06;6.93;;;5.18;;
21754;SDS011;11039;50.028;19.938;2023-02-28T02:49:35;6.85;;;5.07;;
21754;SDS011;11039;50.028;19.938;2023-02-28T02:52:03;7.00;;;5.07;;
21754;SDS011;11039;50.028;19.938;2023-02-28T02:54:33;6.90;;;4.78;;
21754;SDS011;11039;50.028;19.938;2023-02-28T02:57:02;6.72;;;5.00;;
21754;SDS011;11039;50.028;19.938;2023-02-28T02:59:29;8.18;;;5.50;;
21754;SDS011;11039;50.028;19.938;2023-02-28T03:01:57;6.65;;;4.85;;
21754;SDS011;11039;50.028;19.938;2023-02-28T03:04:24;6.80;;;5.30;;
21754;SDS011;11039;50.028;19.938;2023-02-28T03:06:51;6.68;;;5.05;;
21754;SDS011;11039;50.028;19.938;2023-02-28T03:09:23;6.57;;;4.95;;
21754;SDS011;11039;50.028;19.938;2023-02-28T03:11:54;6.78;;;4.90;;
21754;SDS011;11039;50.028;19.938;2023-02-28T03:16:53;9.20;;;5.38;;
21754;SDS011;11039;50.028;19.938;2023-02-28T03:19:26;6.78;;;4.82;;
21754;SDS011;11039;50.028;19.938;2023-02-28T03:27:28;6.60;;;4.80;;
21754;SDS011;11039;50.028;19.938;2023-02-28T03:30:06;6.70;;;5.03;;
21754;SDS011;11039;50.028;19.938;2023-02-28T03:32:40;6.65;;;4.85;;
21754;SDS011;11039;50.028;19.938;2023-02-28T03:35:14;7.85;;;5.43;;
21754;SDS011;11039;50.028;19.938;2023-02-28T03:37:46;8.25;;;5.07;;
21754;SDS011;11039;50.028;19.938;2023-02-28T03:40:14;7.28;;;5.28;;
21754;SDS011;11039;50.028;19.938;2023-02-28T03:42:43;6.65;;;5.00;;
21754;SDS011;11039;50.028;19.938;2023-02-28T03:45:10;7.30;;;4.72;;
21754;SDS011;11039;50.028;19.938;2023-02-28T03:47:39;7.68;;;5.40;;
21754;SDS011;11039;50.028;19.938;2023-02-28T03:50:10;7.30;;;5.50;;
21754;SDS011;11039;50.028;19.938;2023-02-28T03:52:49;8.05;;;5.53;;
21754;SDS011;11039;50.028;19.938;2023-02-28T03:55:16;6.90;;;4.88;;
21754;SDS011;11039;50.028;19.938;2023-02-28T04:00:28;8.27;;;5.35;;
21754;SDS011;11039;50.028;19.938;2023-02-28T04:02:57;6.38;;;4.97;;
21754;SDS011;11039;50.028;19.938;2023-02-28T04:05:24;7.72;;;5.07;;
21754;SDS011;11039;50.028;19.938;2023-02-28T04:07:50;7.05;;;5.28;;
21754;SDS011;11039;50.028;19.938;2023-02-28T04:10:16;6.05;;;5.05;;
21754;SDS011;11039;50.028;19.938;2023-02-28T04:12:43;9.27;;;5.53;;
21754;SDS011;11039;50.028;19.938;2023-02-28T04:15:09;7.28;;;5.38;;
21754;SDS011;11039;50.028;19.938;2023-02-28T04:17:36;9.18;;;5.47;;
21754;SDS011;11039;50.028;19.938;2023-02-28T04:20:03;7.75;;;5.72;;
21754;SDS011;11039;50.028;19.938;2023-02-28T04:22:34;7.22;;;5.43;;
21754;SDS011;11039;50.028;19.938;2023-02-28T04:25:00;6.50;;;5.13;;
21754;SDS011;11039;50.028;19.938;2023-02-28T04:27:26;6.93;;;5.43;;
21754;SDS011;11039;50.028;19.938;2023-02-28T04:29:52;7.78;;;5.90;;
21754;SDS011;11039;50.028;19.938;2023-02-28T04:32:18;8.10;;;5.10;;
21754;SDS011;11039;50.028;19.938;2023-02-28T04:34:44;6.38;;;4.97;;
21754;SDS011;11039;50.028;19.938;2023-02-28T04:37:10;9.48;;;6.20;;
21754;SDS011;11039;50.028;19.938;2023-02-28T04:39:36;7.25;;;5.50;;
21754;SDS011;11039;50.028;19.938;2023-02-28T04:42:02;8.48;;;5.60;;
21754;SDS011;11039;50.028;19.938;2023-02-28T04:44:28;8.07;;;5.60;;
21754;SDS011;11039;50.028;19.938;2023-02-28T04:46:55;9.63;;;6.18;;
21754;SDS011;11039;50.028;19.938;2023-02-28T04:49:21;13.63;;;5.85;;
21754;SDS011;11039;50.028;19.938;2023-02-28T04:51:47;7.25;;;5.28;;
21754;SDS011;11039;50.028;19.938;2023-02-28T04:54:14;7.65;;;5.50;;
21754;SDS011;11039;50.028;19.938;2023-02-28T04:56:41;9.23;;;5.80;;
21754;SDS011;11039;50.028;19.938;2023-02-28T04:59:07;7.75;;;5.53;;
21754;SDS011;11039;50.028;19.938;2023-02-28T05:01:33;8.00;;;5.78;;
21754;SDS011;11039;50.028;19.938;2023-02-28T05:04:01;9.52;;;6.38;;
21754;SDS011;11039;50.028;19.938;2023-02-28T05:06:29;8.88;;;5.82;;
21754;SDS011;11039;50.028;19.938;2023-02-28T05:08:55;8.38;;;5.90;;
21754;SDS011;11039;50.028;19.938;2023-02-28T05:11:26;9.20;;;5.78;;
21754;SDS011;11039;50.028;19.938;2023-02-28T05:13:54;8.85;;;6.40;;
21754;SDS011;11039;50.028;19.938;2023-02-28T05:16:20;8.55;;;6.18;;
21754;SDS011;11039;50.028;19.938;2023-02-28T05:18:46;9.05;;;6.03;;
21754;SDS011;11039;50.028;19.938;2023-02-28T05:21:21;8.18;;;5.45;;
21754;SDS011;11039;50.028;19.938;2023-02-28T05:23:49;7.50;;;5.38;;
21754;SDS011;11039;50.028;19.938;2023-02-28T05:26:15;10.35;;;5.97;;
21754;SDS011;11039;50.028;19.938;2023-02-28T05:28:41;9.00;;;6.00;;
21754;SDS011;11039;50.028;19.938;2023-02-28T05:31:08;8.15;;;6.18;;
21754;SDS011;11039;50.028;19.938;2023-02-28T05:33:36;7.53;;;5.60;;
21754;SDS011;11039;50.028;19.938;2023-02-28T05:36:02;9.75;;;6.50;;
21754;SDS011;11039;50.028;19.938;2023-02-28T05:38:28;8.50;;;6.05;;
21754;SDS011;11039;50.028;19.938;2023-02-28T05:40:54;8.02;;;6.10;;
21754;SDS011;11039;50.028;19.938;2023-02-28T05:43:21;8.68;;;6.03;;
21754;SDS011;11039;50.028;19.938;2023-02-28T05:45:47;8.77;;;6.35;;
21754;SDS011;11039;50.028;19.938;2023-02-28T05:48:13;8.55;;;6.28;;
21754;SDS011;11039;50.028;19.938;2023-02-28T05:50:39;8.13;;;6.30;;
21754;SDS011;11039;50.028;19.938;2023-02-28T05:53:07;8.75;;;6.32;;
21754;SDS011;11039;50.028;19.938;2023-02-28T05:55:33;10.40;;;6.93;;
21754;SDS011;11039;50.028;19.938;2023-02-28T05:58:01;8.85;;;6.57;;
21754;SDS011;11039;50.028;19.938;2023-02-28T06:00:27;9.70;;;6.60;;
21754;SDS011;11039;50.028;19.938;2023-02-28T06:02:53;9.50;;;6.93;;
21754;SDS011;11039;50.028;19.938;2023-02-28T06:05:21;8.85;;;6.60;;
21754;SDS011;11039;50.028;19.938;2023-02-28T06:07:47;9.73;;;6.85;;
21754;SDS011;11039;50.028;19.938;2023-02-28T06:10:13;8.35;;;6.57;;
21754;SDS011;11039;50.028;19.938;2023-02-28T06:12:39;8.90;;;6.32;;
21754;SDS011;11039;50.028;19.938;2023-02-28T06:15:12;9.70;;;6.90;;
21754;SDS011;11039;50.028;19.938;2023-02-28T06:17:39;9.73;;;6.72;;
21754;SDS011;11039;50.028;19.938;2023-02-28T06:20:05;9.07;;;6.63;;
21754;SDS011;11039;50.028;19.938;2023-02-28T06:22:31;10.07;;;6.38;;
21754;SDS011;11039;50.028;19.938;2023-02-28T06:24:58;10.00;;;6.75;;
21754;SDS011;11039;50.028;19.938;2023-02-28T06:27:24;8.57;;;6.50;;
21754;SDS011;11039;50.028;19.938;2023-02-28T06:29:53;9.75;;;6.72;;
21754;SDS011;11039;50.028;19.938;2023-02-28T06:32:20;9.75;;;6.68;;
21754;SDS011;11039;50.028;19.938;2023-02-28T06:34:46;10.85;;;6.85;;
21754;SDS011;11039;50.028;19.938;2023-02-28T06:37:12;9.02;;;6.75;;
21754;SDS011;11039;50.028;19.938;2023-02-28T06:39:38;10.50;;;7.30;;
21754;SDS011;11039;50.028;19.938;2023-02-28T06:42:04;9.73;;;6.65;;
21754;SDS011;11039;50.028;19.938;2023-02-28T06:44:30;10.98;;;7.30;;
21754;SDS011;11039;50.028;19.938;2023-02-28T06:47:00;9.82;;;7.28;;
21754;SDS011;11039;50.028;19.938;2023-02-28T06:49:28;10.43;;;6.57;;
21754;SDS011;11039;50.028;19.938;2023-02-28T06:51:54;9.52;;;7.25;;
21754;SDS011;11039;50.028;19.938;2023-02-28T06:54:20;10.05;;;6.97;;
21754;SDS011;11039;50.028;19.938;2023-02-28T06:56:46;11.23;;;7.35;;
21754;SDS011;11039;50.028;19.938;2023-02-28T06:59:13;10.98;;;7.28;;
21754;SDS011;11039;50.028;19.938;2023-02-28T07:01:39;11.20;;;7.28;;
21754;SDS011;11039;50.028;19.938;2023-02-28T07:04:06;14.20;;;7.97;;
21754;SDS011;11039;50.028;19.938;2023-02-28T07:06:32;14.18;;;8.05;;
21754;SDS011;11039;50.028;19.938;2023-02-28T07:08:58;15.55;;;8.23;;
21754;SDS011;11039;50.028;19.938;2023-02-28T07:11:25;14.63;;;7.85;;
21754;SDS011;11039;50.028;19.938;2023-02-28T07:13:55;13.63;;;7.57;;
21754;SDS011;11039;50.028;19.938;2023-02-28T07:16:21;11.35;;;7.78;;
21754;SDS011;11039;50.028;19.938;2023-02-28T07:18:47;12.00;;;7.82;;
21754;SDS011;11039;50.028;19.938;2023-02-28T07:21:14;15.80;;;7.45;;
21754;SDS011;11039;50.028;19.938;2023-02-28T07:23:40;13.25;;;7.78;;
21754;SDS011;11039;50.028;19.938;2023-02-28T07:26:07;13.27;;;8.10;;
21754;SDS011;11039;50.028;19.938;2023-02-28T07:28:36;12.05;;;7.82;;
21754;SDS011;11039;50.028;19.938;2023-02-28T07:31:06;14.13;;;7.60;;
21754;SDS011;11039;50.028;19.938;2023-02-28T07:33:33;18.85;;;7.90;;
21754;SDS011;11039;50.028;19.938;2023-02-28T07:36:09;11.93;;;8.05;;
21754;SDS011;11039;50.028;19.938;2023-02-28T07:38:40;11.13;;;7.43;;
21754;SDS011;11039;50.028;19.938;2023-02-28T07:41:06;13.57;;;8.27;;
21754;SDS011;11039;50.028;19.938;2023-02-28T07:43:33;14.27;;;7.95;;
21754;SDS011;11039;50.028;19.938;2023-02-28T07:46:09;11.18;;;7.45;;
21754;SDS011;11039;50.028;19.938;2023-02-28T07:48:36;14.63;;;8.40;;
21754;SDS011;11039;50.028;19.938;2023-02-28T07:51:02;11.63;;;7.68;;
21754;SDS011;11039;50.028;19.938;2023-02-28T07:53:29;12.18;;;8.18;;
21754;SDS011;11039;50.028;19.938;2023-02-28T07:55:56;11.98;;;8.20;;
21754;SDS011;11039;50.028;19.938;2023-02-28T07:58:22;14.75;;;8.50;;
21754;SDS011;11039;50.028;19.938;2023-02-28T08:00:48;13.45;;;8.07;;
21754;SDS011;11039;50.028;19.938;2023-02-28T08:03:14;12.68;;;7.90;;
21754;SDS011;11039;50.028;19.938;2023-02-28T08:05:40;11.30;;;7.60;;
21754;SDS011;11039;50.028;19.938;2023-02-28T08:08:07;12.80;;;8.63;;
21754;SDS011;11039;50.028;19.938;2023-02-28T08:10:33;11.27;;;7.55;;
21754;SDS011;11039;50.028;19.938;2023-02-28T08:12:59;12.88;;;7.93;;
21754;SDS011;11039;50.028;19.938;2023-02-28T08:15:26;12.20;;;7.88;;
21754;SDS011;11039;50.028;19.938;2023-02-28T08:17:52;12.77;;;8.38;;
21754;SDS011;11039;50.028;19.938;2023-02-28T08:20:18;11.50;;;7.38;;
21754;SDS011;11039;50.028;19.938;2023-02-28T08:22:44;11.85;;;7.63;;
21754;SDS011;11039;50.028;19.938;2023-02-28T08:25:10;11.85;;;7.90;;
21754;SDS011;11039;50.028;19.938;2023-02-28T08:27:36;10.07;;;7.47;;
21754;SDS011;11039;50.028;19.938;2023-02-28T08:30:03;12.13;;;7.90;;
21754;SDS011;11039;50.028;19.938;2023-02-28T08:32:29;11.23;;;8.00;;
21754;SDS011;11039;50.028;19.938;2023-02-28T08:34:55;9.25;;;7.07;;
21754;SDS011;11039;50.028;19.938;2023-02-28T08:37:21;12.15;;;8.00;;
21754;SDS011;11039;50.028;19.938;2023-02-28T08:39:47;10.55;;;7.05;;
21754;SDS011;11039;50.028;19.938;2023-02-28T08:42:13;10.80;;;7.30;;
21754;SDS011;11039;50.028;19.938;2023-02-28T08:44:39;10.23;;;7.28;;
21754;SDS011;11039;50.028;19.938;2023-02-28T08:47:05;11.88;;;7.65;;
21754;SDS011;11039;50.028;19.938;2023-02-28T08:49:32;9.68;;;6.88;;
21754;SDS011;11039;50.028;19.938;2023-02-28T08:51:58;10.50;;;7.25;;
21754;SDS011;11039;50.028;19.938;2023-02-28T08:54:24;9.93;;;7.22;;
21754;SDS011;11039;50.028;19.938;2023-02-28T08:56:50;13.80;;;9.23;;
21754;SDS011;11039;50.028;19.938;2023-02-28T08:59:16;12.02;;;9.18;;
21754;SDS011;11039;50.028;19.938;2023-02-28T09:01:42;15.18;;;8.30;;
21754;SDS011;11039;50.028;19.938;2023-02-28T09:04:08;16.35;;;7.28;;
21754;SDS011;11039;50.028;19.938;2023-02-28T09:06:36;10.32;;;7.07;;
21754;SDS011;11039;50.028;19.938;2023-02-28T09:09:02;10.40;;;6.55;;
21754;SDS011;11039;50.028;19.938;2023-02-28T09:11:31;10.00;;;6.28;;
21754;SDS011;11039;50.028;19.938;2023-02-28T09:13:58;11.95;;;6.72;;
21754;SDS011;11039;50.028;19.938;2023-02-28T09:16:25;9.18;;;6.72;;
21754;SDS011;11039;50.028;19.938;2023-02-28T09:18:51;10.25;;;6.20;;
21754;SDS011;11039;50.028;19.938;2023-02-28T09:21:18;9.65;;;5.70;;
21754;SDS011;11039;50.028;19.938;2023-02-28T09:23:45;8.30;;;5.75;;
21754;SDS011;11039;50.028;19.938;2023-02-28T09:26:19;8.40;;;5.93;;
21754;SDS011;11039;50.028;19.938;2023-02-28T09:28:47;9.18;;;5.82;;
21754;SDS011;11039;50.028;19.938;2023-02-28T09:31:14;9.10;;;5.72;;
21754;SDS011;11039;50.028;19.938;2023-02-28T09:33:40;6.95;;;5.53;;
21754;SDS011;11039;50.028;19.938;2023-02-28T09:36:06;7.15;;;5.15;;
21754;SDS011;11039;50.028;19.938;2023-02-28T09:38:32;7.85;;;4.82;;
21754;SDS011;11039;50.028;19.938;2023-02-28T09:41:00;8.80;;;5.35;;
21754;SDS011;11039;50.028;19.938;2023-02-28T09:43:29;9.48;;;5.00;;
21754;SDS011;11039;50.028;19.938;2023-02-28T09:48:44;6.82;;;4.43;;
21754;SDS011;11039;50.028;19.938;2023-02-28T09:51:15;9.23;;;4.78;;
21754;SDS011;11039;50.028;19.938;2023-02-28T09:53:49;7.85;;;4.90;;
21754;SDS011;11039;50.028;19.938;2023-02-28T09:56:17;6.68;;;4.20;;
21754;SDS011;11039;50.028;19.938;2023-02-28T09:58:47;7.28;;;4.88;;
21754;SDS011;11039;50.028;19.938;2023-02-28T10:03:53;8.15;;;4.70;;
21754;SDS011;11039;50.028;19.938;2023-02-28T10:06:22;7.18;;;4.30;;
21754;SDS011;11039;50.028;19.938;2023-02-28T10:11:20;5.25;;;3.55;;
21754;SDS011;11039;50.028;19.938;2023-02-28T10:16:16;7.38;;;3.70;;
21754;SDS011;11039;50.028;19.938;2023-02-28T10:21:15;7.38;;;4.13;;
21754;SDS011;11039;50.028;19.938;2023-02-28T10:23:43;6.47;;;4.05;;
21754;SDS011;11039;50.028;19.938;2023-02-28T10:26:13;6.13;;;3.90;;
21754;SDS011;11039;50.028;19.938;2023-02-28T10:28:41;5.63;;;3.83;;
21754;SDS011;11039;50.028;19.938;2023-02-28T10:31:08;5.93;;;3.80;;
21754;SDS011;11039;50.028;19.938;2023-02-28T10:33:36;5.45;;;3.55;;
21754;SDS011;11039;50.028;19.938;2023-02-28T10:36:03;6.13;;;4.10;;
21754;SDS011;11039;50.028;19.938;2023-02-28T10:38:36;5.55;;;3.75;;
21754;SDS011;11039;50.028;19.938;2023-02-28T10:41:10;5.18;;;3.45;;
21754;SDS011;11039;50.028;19.938;2023-02-28T10:43:38;5.88;;;3.80;;
21754;SDS011;11039;50.028;19.938;2023-02-28T10:48:40;7.00;;;4.05;;
21754;SDS011;11039;50.028;19.938;2023-02-28T10:51:13;4.93;;;3.60;;
21754;SDS011;11039;50.028;19.938;2023-02-28T11:03:58;7.03;;;3.60;;
21754;SDS011;11039;50.028;19.938;2023-02-28T11:06:30;5.18;;;3.70;;
21754;SDS011;11039;50.028;19.938;2023-02-28T11:08:58;5.60;;;3.80;;
21754;SDS011;11039;50.028;19.938;2023-02-28T11:11:25;5.68;;;3.83;;
21754;SDS011;11039;50.028;19.938;2023-02-28T11:14:40;5.43;;;3.63;;
21754;SDS011;11039;50.028;19.938;2023-02-28T11:16:38;4.45;;;3.55;;
21754;SDS011;11039;50.028;19.938;2023-02-28T11:19:05;5.97;;;3.45;;
21754;SDS011;11039;50.028;19.938;2023-02-28T11:21:36;5.20;;;3.55;;
21754;SDS011;11039;50.028;19.938;2023-02-28T11:26:49;7.07;;;5.03;;
21754;SDS011;11039;50.028;19.938;2023-02-28T11:29:17;12.52;;;6.50;;
21754;SDS011;11039;50.028;19.938;2023-02-28T11:31:49;10.27;;;6.40;;
21754;SDS011;11039;50.028;19.938;2023-02-28T11:34:26;8.45;;;6.20;;
21754;SDS011;11039;50.028;19.938;2023-02-28T11:36:54;12.38;;;6.13;;
21754;SDS011;11039;50.028;19.938;2023-02-28T11:39:21;9.07;;;5.82;;
21754;SDS011;11039;50.028;19.938;2023-02-28T11:42:04;6.28;;;4.60;;
21754;SDS011;11039;50.028;19.938;2023-02-28T11:47:14;7.13;;;4.97;;
21754;SDS011;11039;50.028;19.938;2023-02-28T11:57:44;6.57;;;3.92;;
21754;SDS011;11039;50.028;19.938;2023-02-28T12:07:42;5.55;;;3.80;;
21754;SDS011;11039;50.028;19.938;2023-02-28T12:26:00;7.95;;;4.10;;
21754;SDS011;11039;50.028;19.938;2023-02-28T12:28:30;7.35;;;4.30;;
21754;SDS011;11039;50.028;19.938;2023-02-28T12:31:06;8.35;;;4.10;;
21754;SDS011;11039;50.028;19.938;2023-02-28T12:33:42;7.22;;;4.03;;
21754;SDS011;11039;50.028;19.938;2023-02-28T12:36:10;5.82;;;3.85;;
21754;SDS011;11039;50.028;19.938;2023-02-28T12:38:44;7.40;;;3.70;;
21754;SDS011;11039;50.028;19.938;2023-02-28T12:43:37;5.68;;;3.90;;
21754;SDS011;11039;50.028;19.938;2023-02-28T12:48:44;6.25;;;3.80;;
21754;SDS011;11039;50.028;19.938;2023-02-28T12:51:12;7.90;;;3.40;;
21754;SDS011;11039;50.028;19.938;2023-02-28T12:56:28;4.53;;;3.20;;
21754;SDS011;11039;50.028;19.938;2023-02-28T12:59:01;3.72;;;2.88;;
21754;SDS011;11039;50.028;19.938;2023-02-28T13:09:12;4.95;;;3.10;;
21754;SDS011;11039;50.028;19.938;2023-02-28T13:11:41;6.20;;;3.50;;
21754;SDS011;11039;50.028;19.938;2023-02-28T13:19:19;6.47;;;3.30;;
21754;SDS011;11039;50.028;19.938;2023-02-28T13:21:46;5.47;;;3.53;;
21754;SDS011;11039;50.028;19.938;2023-02-28T13:24:35;5.60;;;3.50;;
21754;SDS011;11039;50.028;19.938;2023-02-28T13:29:48;4.60;;;3.17;;
21754;SDS011;11039;50.028;19.938;2023-02-28T13:32:27;5.20;;;3.40;;
21754;SDS011;11039;50.028;19.938;2023-02-28T13:39:53;5.40;;;3.33;;
21754;SDS011;11039;50.028;19.938;2023-02-28T13:47:39;6.15;;;3.20;;
21754;SDS011;11039;50.028;19.938;2023-02-28T13:55:39;4.18;;;2.83;;
21754;SDS011;11039;50.028;19.938;2023-02-28T14:05:42;3.88;;;3.30;;
21754;SDS011;11039;50.028;19.938;2023-02-28T14:08:12;4.57;;;3.20;;
21754;SDS011;11039;50.028;19.938;2023-02-28T14:20:41;4.43;;;2.88;;
21754;SDS011;11039;50.028;19.938;2023-02-28T14:23:16;5.25;;;3.10;;
21754;SDS011;11039;50.028;19.938;2023-02-28T14:25:51;3.72;;;2.60;;
21754;SDS011;11039;50.028;19.938;2023-02-28T14:29:07;4.07;;;2.88;;
21754;SDS011;11039;50.028;19.938;2023-02-28T14:31:09;4.10;;;3.10;;
21754;SDS011;11039;50.028;19.938;2023-02-28T14:33:46;5.20;;;3.05;;
21754;SDS011;11039;50.028;19.938;2023-02-28T14:38:51;5.97;;;2.67;;
21754;SDS011;11039;50.028;19.938;2023-02-28T14:43:47;4.20;;;2.90;;
21754;SDS011;11039;50.028;19.938;2023-02-28T14:46:13;3.58;;;2.70;;
21754;SDS011;11039;50.028;19.938;2023-02-28T14:48:39;4.68;;;3.15;;
21754;SDS011;11039;50.028;19.938;2023-02-28T14:51:06;4.35;;;3.20;;
21754;SDS011;11039;50.028;19.938;2023-02-28T14:53:35;3.90;;;2.80;;
21754;SDS011;11039;50.028;19.938;2023-02-28T14:56:01;3.55;;;2.90;;
21754;SDS011;11039;50.028;19.938;2023-02-28T14:58:29;5.10;;;3.03;;
21754;SDS011;11039;50.028;19.938;2023-02-28T15:00:59;4.07;;;2.95;;
21754;SDS011;11039;50.028;19.938;2023-02-28T15:06:04;4.80;;;2.88;;
21754;SDS011;11039;50.028;19.938;2023-02-28T15:08:31;4.53;;;3.15;;
21754;SDS011;11039;50.028;19.938;2023-02-28T15:15:59;5.63;;;3.60;;
21754;SDS011;11039;50.028;19.938;2023-02-28T15:18:28;4.55;;;3.00;;
21754;SDS011;11039;50.028;19.938;2023-02-28T15:21:02;4.97;;;2.75;;
21754;SDS011;11039;50.028;19.938;2023-02-28T15:23:29;3.65;;;2.92;;
21754;SDS011;11039;50.028;19.938;2023-02-28T15:25:56;4.20;;;2.90;;
21754;SDS011;11039;50.028;19.938;2023-02-28T15:28:22;3.92;;;2.80;;
21754;SDS011;11039;50.028;19.938;2023-02-28T15:30:53;4.63;;;3.13;;
21754;SDS011;11039;50.028;19.938;2023-02-28T15:33:21;4.15;;;3.20;;
21754;SDS011;11039;50.028;19.938;2023-02-28T15:35:47;4.15;;;3.08;;
21754;SDS011;11039;50.028;19.938;2023-02-28T15:38:24;3.95;;;3.00;;
21754;SDS011;11039;50.028;19.938;2023-02-28T15:40:52;5.35;;;3.10;;
21754;SDS011;11039;50.028;19.938;2023-02-28T15:48:33;3.30;;;2.67;;
21754;SDS011;11039;50.028;19.938;2023-02-28T15:53:37;4.68;;;3.28;;
21754;SDS011;11039;50.028;19.938;2023-02-28T15:56:06;5.55;;;3.60;;
21754;SDS011;11039;50.028;19.938;2023-02-28T15:58:34;3.50;;;2.72;;
21754;SDS011;11039;50.028;19.938;2023-02-28T16:01:16;4.20;;;3.08;;
21754;SDS011;11039;50.028;19.938;2023-02-28T16:03:49;4.57;;;3.20;;
21754;SDS011;11039;50.028;19.938;2023-02-28T16:08:42;4.28;;;3.33;;
21754;SDS011;11039;50.028;19.938;2023-02-28T16:11:09;3.70;;;2.88;;
21754;SDS011;11039;50.028;19.938;2023-02-28T16:13:36;4.15;;;3.17;;
21754;SDS011;11039;50.028;19.938;2023-02-28T16:16:02;4.55;;;3.03;;
21754;SDS011;11039;50.028;19.938;2023-02-28T16:18:28;4.07;;;3.10;;
21754;SDS011;11039;50.028;19.938;2023-02-28T16:20:54;4.43;;;3.10;;
21754;SDS011;11039;50.028;19.938;2023-02-28T16:23:20;4.50;;;3.10;;
21754;SDS011;11039;50.028;19.938;2023-02-28T16:25:46;5.25;;;3.30;;
21754;SDS011;11039;50.028;19.938;2023-02-28T16:28:18;4.40;;;3.28;;
21754;SDS011;11039;50.028;19.938;2023-02-28T16:30:45;4.03;;;3.13;;
21754;SDS011;11039;50.028;19.938;2023-02-28T16:33:11;3.95;;;2.90;;
21754;SDS011;11039;50.028;19.938;2023-02-28T16:35:37;4.05;;;3.10;;
21754;SDS011;11039;50.028;19.938;2023-02-28T16:38:03;4.20;;;3.22;;
21754;SDS011;11039;50.028;19.938;2023-02-28T16:40:29;4.32;;;3.20;;
21754;SDS011;11039;50.028;19.938;2023-02-28T16:42:58;4.55;;;3.30;;
21754;SDS011;11039;50.028;19.938;2023-02-28T16:45:26;4.93;;;3.10;;
21754;SDS011;11039;50.028;19.938;2023-02-28T16:47:53;4.43;;;3.20;;
21754;SDS011;11039;50.028;19.938;2023-02-28T16:50:20;4.03;;;3.05;;
21754;SDS011;11039;50.028;19.938;2023-02-28T16:52:47;4.63;;;3.30;;
21754;SDS011;11039;50.028;19.938;2023-02-28T16:55:14;5.65;;;3.35;;
21754;SDS011;11039;50.028;19.938;2023-02-28T16:57:41;4.55;;;3.17;;
21754;SDS011;11039;50.028;19.938;2023-02-28T17:00:08;4.20;;;3.28;;
21754;SDS011;11039;50.028;19.938;2023-02-28T17:02:37;4.10;;;3.35;;
21754;SDS011;11039;50.028;19.938;2023-02-28T17:05:03;4.13;;;3.30;;
21754;SDS011;11039;50.028;19.938;2023-02-28T17:07:29;4.40;;;3.47;;
21754;SDS011;11039;50.028;19.938;2023-02-28T17:09:56;4.68;;;3.13;;
21754;SDS011;11039;50.028;19.938;2023-02-28T17:12:22;8.40;;;4.00;;
21754;SDS011;11039;50.028;19.938;2023-02-28T17:14:48;13.45;;;6.00;;
21754;SDS011;11039;50.028;19.938;2023-02-28T17:17:17;15.95;;;7.53;;
21754;SDS011;11039;50.028;19.938;2023-02-28T17:19:44;27.50;;;12.60;;
21754;SDS011;11039;50.028;19.938;2023-02-28T17:22:10;41.72;;;14.18;;
21754;SDS011;11039;50.028;19.938;2023-02-28T17:24:36;38.40;;;14.18;;
21754;SDS011;11039;50.028;19.938;2023-02-28T17:27:02;32.03;;;12.52;;